createdAt,value
2019-01-10T00:00:16.714Z,2.24
2019-01-10T00:02:45.568Z,2.22
2019-01-10T00:05:13.006Z,2.12
2019-01-10T00:07:40.372Z,2.15
2019-01-10T00:10:09.060Z,2.19
2019-01-10T00:12:39.486Z,2.05
2019-01-10T00:15:10.122Z,2.01
2019-01-10T00:17:37.816Z,2.05
2019-01-10T00:20:06.291Z,1.96
2019-01-10T00:22:34.153Z,1.92
2019-01-10T00:25:01.074Z,2.00
2019-01-10T00:27:28.225Z,2.05
2019-01-10T00:29:55.293Z,1.98
2019-01-10T00:32:22.246Z,2.01
2019-01-10T00:34:49.555Z,1.89
2019-01-10T00:37:17.268Z,2.26
2019-01-10T00:39:44.318Z,2.00
2019-01-10T00:42:12.278Z,2.03
2019-01-10T00:44:39.194Z,2.06
2019-01-10T00:47:06.798Z,1.93
2019-01-10T00:49:35.061Z,1.89
2019-01-10T00:52:02.413Z,1.90
2019-01-10T00:54:29.085Z,2.03
2019-01-10T00:56:56.119Z,2.03
2019-01-10T00:59:23.255Z,2.06
2019-01-10T01:01:49.948Z,2.00
2019-01-10T01:04:16.640Z,1.93
2019-01-10T01:06:43.670Z,1.87
2019-01-10T01:09:11.205Z,1.99
2019-01-10T01:11:38.247Z,1.94
2019-01-10T01:14:05.128Z,2.13
2019-01-10T01:16:32.027Z,2.07
2019-01-10T01:18:59.391Z,2.06
2019-01-10T01:21:26.870Z,2.06
2019-01-10T01:23:54.545Z,2.03
2019-01-10T01:26:21.878Z,2.08
2019-01-10T01:28:48.946Z,2.03
2019-01-10T01:31:15.607Z,1.99
2019-01-10T01:33:43.346Z,1.92
2019-01-10T01:36:10.596Z,1.99
2019-01-10T01:38:38.440Z,2.04
2019-01-10T01:41:05.507Z,2.00
2019-01-10T01:43:32.994Z,1.96
2019-01-10T01:45:59.758Z,1.93
2019-01-10T01:48:27.854Z,1.88
2019-01-10T01:50:54.675Z,1.97
2019-01-10T01:53:21.443Z,2.05
2019-01-10T01:55:48.438Z,2.09
2019-01-10T01:58:15.223Z,1.95
2019-01-10T02:00:42.282Z,1.82
2019-01-10T02:03:09.664Z,1.92
2019-01-10T02:05:37.214Z,2.06
2019-01-10T02:08:05.502Z,1.66
2019-01-10T02:10:32.784Z,2.10
2019-01-10T02:13:00.039Z,1.99
2019-01-10T02:15:26.823Z,2.04
2019-01-10T02:17:54.621Z,2.07
2019-01-10T02:20:21.397Z,2.05
2019-01-10T02:22:48.895Z,2.07
2019-01-10T02:25:16.563Z,1.99
2019-01-10T02:27:43.329Z,1.89
2019-01-10T02:30:13.277Z,1.86
2019-01-10T02:32:40.065Z,2.03
2019-01-10T02:35:07.639Z,1.98
2019-01-10T02:37:35.199Z,2.00
2019-01-10T02:40:03.337Z,1.93
2019-01-10T02:42:31.315Z,1.96
2019-01-10T02:44:58.874Z,1.94
2019-01-10T02:47:27.091Z,2.01
2019-01-10T02:49:54.500Z,2.14
2019-01-10T02:52:21.532Z,2.19
2019-01-10T02:54:48.670Z,2.16
2019-01-10T02:57:16.170Z,2.03
2019-01-10T02:59:43.178Z,1.88
2019-01-10T03:02:10.448Z,1.87
2019-01-10T03:04:38.021Z,1.84
2019-01-10T03:07:04.895Z,1.88
2019-01-10T03:09:31.723Z,1.94
2019-01-10T03:11:58.748Z,1.98
2019-01-10T03:14:26.085Z,1.99
2019-01-10T03:16:53.217Z,1.99
2019-01-10T03:19:20.396Z,2.02
2019-01-10T03:21:47.178Z,2.07
2019-01-10T03:24:14.900Z,2.02
2019-01-10T03:26:42.138Z,2.05
2019-01-10T03:29:11.528Z,2.04
2019-01-10T03:31:38.440Z,1.97
2019-01-10T03:34:05.955Z,1.90
2019-01-10T03:36:32.740Z,1.85
2019-01-10T03:38:59.714Z,1.86
2019-01-10T03:41:26.382Z,1.82
2019-01-10T03:43:53.150Z,1.83
2019-01-10T03:46:20.486Z,1.93
2019-01-10T03:48:47.275Z,1.82
2019-01-10T03:51:14.986Z,1.84
2019-01-10T03:53:42.307Z,1.77
2019-01-10T03:56:09.301Z,1.79
2019-01-10T03:58:36.215Z,1.78
2019-01-10T04:01:03.842Z,1.78
2019-01-10T04:03:30.865Z,1.69
2019-01-10T04:05:57.645Z,1.77
2019-01-10T04:08:25.035Z,1.71
2019-01-10T04:10:52.550Z,1.68
2019-01-10T04:13:19.475Z,1.65
2019-01-10T04:15:46.565Z,1.66
2019-01-10T04:18:14.235Z,1.81
2019-01-10T04:20:41.016Z,1.85
2019-01-10T04:23:07.831Z,1.85
2019-01-10T04:25:34.493Z,1.90
2019-01-10T04:28:01.749Z,1.81
2019-01-10T04:30:28.619Z,1.67
2019-01-10T04:32:55.677Z,1.64
2019-01-10T04:35:23.250Z,1.63
2019-01-10T04:37:50.589Z,1.53
2019-01-10T04:40:20.996Z,1.59
2019-01-10T04:42:47.712Z,1.62
2019-01-10T04:45:15.122Z,1.69
2019-01-10T04:47:42.051Z,1.62
2019-01-10T04:50:09.846Z,1.62
2019-01-10T04:52:37.145Z,1.64
2019-01-10T04:55:04.842Z,1.60
2019-01-10T04:57:32.813Z,1.66
2019-01-10T05:00:00.185Z,1.73
2019-01-10T05:02:26.981Z,1.67
2019-01-10T05:04:54.521Z,1.77
2019-01-10T05:07:21.232Z,1.65
2019-01-10T05:09:48.463Z,1.70
2019-01-10T05:12:16.137Z,1.73
2019-01-10T05:14:43.170Z,1.66
2019-01-10T05:17:10.634Z,1.72
2019-01-10T05:19:38.100Z,1.69
2019-01-10T05:22:04.893Z,1.58
2019-01-10T05:24:31.557Z,1.68
2019-01-10T05:26:59.361Z,1.72
2019-01-10T05:29:26.036Z,1.76
2019-01-10T05:31:52.818Z,1.69
2019-01-10T05:34:20.173Z,1.74
2019-01-10T05:36:47.396Z,1.75
2019-01-10T05:39:14.574Z,1.74
2019-01-10T05:41:42.439Z,1.89
2019-01-10T05:44:10.280Z,1.77
2019-01-10T05:46:37.261Z,1.83
2019-01-10T05:49:05.655Z,1.79
2019-01-10T05:51:32.581Z,1.75
2019-01-10T05:53:59.298Z,1.76
2019-01-10T05:56:25.956Z,1.67
2019-01-10T05:58:53.412Z,1.68
2019-01-10T06:01:20.681Z,1.59
2019-01-10T06:03:53.198Z,1.63
2019-01-10T06:06:17.295Z,1.66
2019-01-10T06:08:44.693Z,1.54
2019-01-10T06:11:11.719Z,1.59
2019-01-10T06:13:38.395Z,1.61
2019-01-10T06:16:05.725Z,1.59
2019-01-10T06:18:32.402Z,1.67
2019-01-10T06:20:59.089Z,1.53
2019-01-10T06:23:26.386Z,1.45
2019-01-10T06:25:53.346Z,1.48
2019-01-10T06:28:20.387Z,1.50
2019-01-10T06:30:48.498Z,1.61
2019-01-10T06:33:15.165Z,1.61
2019-01-10T06:35:42.276Z,1.53
2019-01-10T06:38:08.984Z,1.47
2019-01-10T06:40:35.750Z,1.50
2019-01-10T06:43:02.773Z,1.38
2019-01-10T06:45:31.077Z,1.40
2019-01-10T06:47:57.996Z,1.51
2019-01-10T06:50:24.806Z,1.54
2019-01-10T06:52:51.784Z,1.53
2019-01-10T06:55:20.084Z,1.42
2019-01-10T06:57:47.378Z,1.22
2019-01-10T07:00:20.214Z,1.18
2019-01-10T07:02:48.442Z,1.14
2019-01-10T07:05:15.970Z,1.14
2019-01-10T07:07:43.662Z,1.28
2019-01-10T07:10:14.227Z,1.18
2019-01-10T07:12:41.018Z,1.15
2019-01-10T07:15:07.941Z,1.33
2019-01-10T07:17:34.607Z,1.24
2019-01-10T07:20:02.263Z,1.15
2019-01-10T07:22:29.623Z,1.02
2019-01-10T07:24:56.344Z,0.94
2019-01-10T07:27:23.520Z,1.06
2019-01-10T07:29:55.371Z,1.08
2019-01-10T07:32:22.134Z,1.20
2019-01-10T07:34:49.618Z,1.34
2019-01-10T07:37:16.645Z,1.29
2019-01-10T07:39:44.451Z,0.99
2019-01-10T07:42:11.565Z,0.95
2019-01-10T07:44:39.458Z,1.13
2019-01-10T07:47:08.210Z,1.13
2019-01-10T07:49:34.906Z,1.03
2019-01-10T07:52:02.262Z,0.92
2019-01-10T07:54:28.945Z,0.75
2019-01-10T07:56:55.998Z,0.91
2019-01-10T07:59:23.735Z,0.74
2019-01-10T08:01:51.108Z,0.76
2019-01-10T08:04:18.033Z,0.81
2019-01-10T08:06:45.172Z,0.90
2019-01-10T08:09:12.609Z,0.79
2019-01-10T08:11:40.172Z,0.90
2019-01-10T08:14:07.819Z,0.88
2019-01-10T08:16:35.455Z,0.86
2019-01-10T08:19:02.515Z,0.98
2019-01-10T08:21:29.630Z,0.94
2019-01-10T08:23:56.293Z,0.82
2019-01-10T08:26:23.600Z,0.71
2019-01-10T08:28:51.214Z,0.69
2019-01-10T08:31:18.375Z,0.58
2019-01-10T08:33:46.468Z,0.54
2019-01-10T08:36:13.243Z,0.59
2019-01-10T08:38:40.438Z,0.53
2019-01-10T08:41:08.130Z,0.51
2019-01-10T08:43:35.367Z,0.47
2019-01-10T08:46:02.611Z,0.46
2019-01-10T08:48:29.934Z,0.66
2019-01-10T08:50:56.717Z,0.57
2019-01-10T08:53:24.158Z,0.67
2019-01-10T08:55:50.834Z,0.67
2019-01-10T08:58:18.055Z,0.68
2019-01-10T09:00:45.338Z,0.67
2019-01-10T09:03:12.012Z,0.83
2019-01-10T09:05:39.386Z,0.83
2019-01-10T09:08:06.167Z,0.89
2019-01-10T09:10:33.962Z,0.94
2019-01-10T09:13:01.354Z,1.00
2019-01-10T09:15:34.363Z,1.01
2019-01-10T09:17:57.849Z,1.09
2019-01-10T09:20:24.780Z,1.17
2019-01-10T09:22:51.702Z,1.29
2019-01-10T09:25:18.482Z,1.48
2019-01-10T09:27:45.282Z,1.54
2019-01-10T09:30:14.988Z,1.50
2019-01-10T09:32:42.442Z,1.57
2019-01-10T09:35:09.589Z,1.70
2019-01-10T09:37:36.730Z,1.68
2019-01-10T09:40:05.652Z,1.83
2019-01-10T09:42:32.898Z,1.90
2019-01-10T09:45:00.524Z,1.92
2019-01-10T09:47:27.572Z,2.03
2019-01-10T09:49:55.111Z,1.96
2019-01-10T09:52:22.372Z,2.01
2019-01-10T09:54:50.149Z,2.11
2019-01-10T09:57:17.285Z,2.27
2019-01-10T09:59:45.282Z,2.40
2019-01-10T10:02:12.610Z,2.21
2019-01-10T10:04:40.092Z,2.24
2019-01-10T10:07:07.771Z,2.29
2019-01-10T10:09:34.451Z,2.31
2019-01-10T10:12:02.045Z,2.38
2019-01-10T10:14:30.003Z,2.38
2019-01-10T10:16:57.067Z,2.50
2019-01-10T10:19:24.249Z,2.43
2019-01-10T10:21:51.638Z,2.41
2019-01-10T10:24:18.674Z,2.46
2019-01-10T10:26:45.824Z,2.76
2019-01-10T10:29:12.926Z,2.69
2019-01-10T10:31:40.122Z,2.67
2019-01-10T10:34:07.579Z,2.59
2019-01-10T10:36:35.070Z,2.72
2019-01-10T10:39:01.787Z,2.79
2019-01-10T10:41:30.805Z,2.95
2019-01-10T10:43:57.855Z,2.88
2019-01-10T10:46:25.058Z,2.99
2019-01-10T10:48:52.340Z,3.15
2019-01-10T10:51:19.527Z,3.03
2019-01-10T10:53:48.040Z,3.11
2019-01-10T10:56:14.830Z,2.98
2019-01-10T10:58:42.202Z,3.04
2019-01-10T11:01:09.325Z,2.92
2019-01-10T11:03:36.116Z,2.81
2019-01-10T11:06:03.892Z,2.81
2019-01-10T11:08:30.696Z,2.99
2019-01-10T11:10:57.842Z,2.86
2019-01-10T11:13:25.503Z,2.75
2019-01-10T11:15:52.761Z,3.12
2019-01-10T11:18:20.180Z,3.30
2019-01-10T11:20:48.375Z,3.63
2019-01-10T11:23:15.064Z,3.12
2019-01-10T11:25:41.838Z,3.02
2019-01-10T11:28:09.717Z,2.89
2019-01-10T11:30:38.505Z,2.88
2019-01-10T11:33:05.654Z,2.88
2019-01-10T11:35:33.631Z,2.54
2019-01-10T11:38:00.798Z,2.89
2019-01-10T11:40:27.554Z,2.57
2019-01-10T11:42:54.558Z,2.85
2019-01-10T11:45:24.165Z,3.01
2019-01-10T11:47:51.299Z,3.11
2019-01-10T11:50:18.673Z,3.33
2019-01-10T11:52:46.010Z,2.95
2019-01-10T11:55:14.403Z,3.14
2019-01-10T11:57:41.907Z,3.18
2019-01-10T12:00:17.681Z,3.28
2019-01-10T12:02:45.170Z,3.28
2019-01-10T12:05:13.134Z,3.40
2019-01-10T12:07:40.402Z,3.71
2019-01-10T12:10:08.191Z,3.38
2019-01-10T12:12:35.915Z,3.05
2019-01-10T12:15:04.141Z,2.94
2019-01-10T12:17:31.217Z,3.19
2019-01-10T12:19:57.907Z,3.12
2019-01-10T12:22:25.139Z,2.97
2019-01-10T12:24:52.987Z,3.26
2019-01-10T12:27:20.184Z,2.92
2019-01-10T12:29:46.847Z,2.97
2019-01-10T12:32:13.862Z,3.02
2019-01-10T12:34:40.987Z,2.93
2019-01-10T12:37:08.745Z,2.93
2019-01-10T12:39:36.211Z,2.89
2019-01-10T12:42:03.368Z,3.05
2019-01-10T12:44:30.383Z,2.97
2019-01-10T12:46:57.077Z,2.98
2019-01-10T12:49:24.317Z,3.13
2019-01-10T12:51:51.365Z,2.97
2019-01-10T12:54:18.791Z,3.02
2019-01-10T12:56:45.559Z,3.11
2019-01-10T12:59:12.610Z,3.05
2019-01-10T13:01:40.922Z,3.12
2019-01-10T13:04:08.935Z,2.95
2019-01-10T13:06:35.938Z,2.68
2019-01-10T13:09:06.399Z,3.01
2019-01-10T13:11:33.455Z,2.95
2019-01-10T13:14:00.874Z,2.94
2019-01-10T13:16:29.602Z,2.88
2019-01-10T13:18:57.156Z,2.91
2019-01-10T13:21:24.282Z,2.74
2019-01-10T13:23:51.245Z,2.98
2019-01-10T13:26:18.682Z,2.81
2019-01-10T13:28:45.612Z,2.73
2019-01-10T13:31:12.826Z,2.81
2019-01-10T13:33:40.246Z,2.53
2019-01-10T13:36:07.920Z,2.52
2019-01-10T13:38:36.510Z,2.57
2019-01-10T13:41:03.707Z,2.66
2019-01-10T13:43:30.372Z,2.68
2019-01-10T13:45:57.630Z,2.60
2019-01-10T13:48:25.294Z,2.73
2019-01-10T13:50:52.090Z,2.72
2019-01-10T13:53:19.340Z,2.61
2019-01-10T13:55:46.843Z,2.56
2019-01-10T13:58:14.190Z,2.64
2019-01-10T14:00:41.677Z,2.46
2019-01-10T14:03:11.697Z,2.46
2019-01-10T14:05:37.618Z,2.45
2019-01-10T14:08:05.367Z,2.52
2019-01-10T14:10:33.013Z,2.42
2019-01-10T14:13:00.945Z,2.34
2019-01-10T14:15:33.351Z,2.63
2019-01-10T14:18:00.717Z,2.37
2019-01-10T14:20:27.755Z,2.23
2019-01-10T14:22:54.985Z,2.34
2019-01-10T14:25:22.762Z,2.25
2019-01-10T14:27:50.217Z,2.26
2019-01-10T14:30:20.490Z,2.15
2019-01-10T14:32:47.390Z,2.18
2019-01-10T14:35:15.585Z,2.06
2019-01-10T14:37:43.140Z,2.03
2019-01-10T14:40:10.614Z,2.10
2019-01-10T14:42:37.472Z,2.24
2019-01-10T14:45:06.702Z,2.20
2019-01-10T14:47:34.698Z,2.10
2019-01-10T14:50:01.505Z,2.08
2019-01-10T14:52:29.006Z,2.19
2019-01-10T14:54:56.186Z,2.19
2019-01-10T14:57:23.515Z,2.16
2019-01-10T14:59:50.865Z,2.18
2019-01-10T15:02:17.715Z,2.08
2019-01-10T15:04:45.050Z,2.03
2019-01-10T15:07:13.248Z,2.15
2019-01-10T15:09:40.086Z,2.01
2019-01-10T15:12:07.533Z,1.99
2019-01-10T15:14:34.202Z,2.08
2019-01-10T15:17:00.902Z,2.02
2019-01-10T15:19:27.701Z,2.00
2019-01-10T15:21:54.888Z,1.84
2019-01-10T15:24:21.562Z,1.92
2019-01-10T15:26:48.872Z,1.98
2019-01-10T15:29:15.564Z,1.96
2019-01-10T15:31:42.753Z,1.98
2019-01-10T15:34:10.559Z,2.03
2019-01-10T15:36:37.922Z,1.90
2019-01-10T15:39:07.099Z,1.88
2019-01-10T15:41:34.249Z,1.94
2019-01-10T15:44:01.899Z,1.89
2019-01-10T15:46:29.120Z,1.83
2019-01-10T15:48:56.416Z,1.83
2019-01-10T15:51:23.565Z,1.84
2019-01-10T15:53:50.864Z,1.92
2019-01-10T15:56:18.300Z,1.94
2019-01-10T15:58:44.996Z,1.88
2019-01-10T16:01:12.050Z,1.98
2019-01-10T16:03:39.413Z,2.02
2019-01-10T16:06:06.680Z,1.90
2019-01-10T16:08:33.373Z,1.90
2019-01-10T16:11:00.168Z,1.89
2019-01-10T16:13:27.907Z,1.86
2019-01-10T16:15:55.418Z,1.90
2019-01-10T16:18:22.833Z,1.87
2019-01-10T16:20:50.672Z,1.83
2019-01-10T16:23:18.231Z,1.85
2019-01-10T16:25:45.508Z,1.90
2019-01-10T16:28:12.537Z,1.91
2019-01-10T16:30:39.654Z,1.90
2019-01-10T16:33:07.308Z,2.00
2019-01-10T16:35:34.670Z,2.02
2019-01-10T16:38:02.910Z,2.00
2019-01-10T16:40:29.588Z,2.01
2019-01-10T16:42:56.289Z,2.05
2019-01-10T16:45:30.752Z,1.99
2019-01-10T16:47:58.206Z,1.93
2019-01-10T16:50:25.421Z,2.08
2019-01-10T16:52:52.135Z,1.98
2019-01-10T16:55:19.928Z,1.94
2019-01-10T16:57:46.729Z,1.88
2019-01-10T17:00:18.101Z,2.04
2019-01-10T17:02:45.474Z,2.00
2019-01-10T17:05:12.865Z,1.93
2019-01-10T17:07:40.673Z,1.85
2019-01-10T17:10:08.802Z,1.80
2019-01-10T17:12:36.493Z,2.03
2019-01-10T17:15:04.758Z,2.07
2019-01-10T17:17:37.557Z,2.10
2019-01-10T17:20:00.271Z,2.10
2019-01-10T17:22:28.162Z,2.08
2019-01-10T17:24:55.406Z,2.03
2019-01-10T17:27:22.712Z,1.98
2019-01-10T17:29:49.418Z,2.16
2019-01-10T17:32:16.560Z,2.29
2019-01-10T17:34:43.644Z,2.16
2019-01-10T17:37:10.854Z,2.23
2019-01-10T17:39:39.366Z,2.12
2019-01-10T17:42:07.028Z,2.19
2019-01-10T17:44:34.688Z,2.06
2019-01-10T17:47:01.515Z,2.08
2019-01-10T17:49:28.305Z,2.23
2019-01-10T17:51:56.508Z,2.11
2019-01-10T17:54:23.833Z,2.02
2019-01-10T17:56:51.107Z,1.89
2019-01-10T17:59:17.973Z,1.93
2019-01-10T18:01:45.217Z,1.98
2019-01-10T18:04:12.991Z,2.01
2019-01-10T18:06:39.673Z,1.95
2019-01-10T18:09:08.126Z,1.90
2019-01-10T18:11:34.908Z,1.99
2019-01-10T18:14:03.116Z,1.84
2019-01-10T18:16:30.597Z,1.88
2019-01-10T18:18:57.840Z,1.86
2019-01-10T18:21:25.365Z,1.84
2019-01-10T18:23:52.338Z,1.80
2019-01-10T18:26:19.261Z,1.85
2019-01-10T18:28:46.053Z,1.79
2019-01-10T18:31:14.834Z,1.79
2019-01-10T18:33:43.288Z,1.69
2019-01-10T18:36:10.632Z,1.74
2019-01-10T18:38:39.182Z,1.71
2019-01-10T18:41:07.492Z,1.84
2019-01-10T18:43:35.572Z,1.67
2019-01-10T18:46:02.363Z,1.66
2019-01-10T18:48:31.010Z,1.66
2019-01-10T18:50:57.711Z,1.74
2019-01-10T18:53:25.418Z,1.87
2019-01-10T18:55:53.073Z,1.85
2019-01-10T18:58:20.151Z,1.89
2019-01-10T19:00:49.509Z,1.88
2019-01-10T19:03:17.742Z,1.77
2019-01-10T19:05:47.029Z,1.73
2019-01-10T19:08:14.551Z,1.76
2019-01-10T19:10:43.898Z,1.75
2019-01-10T19:13:12.679Z,1.70
2019-01-10T19:15:40.741Z,1.68
2019-01-10T19:18:07.932Z,1.68
2019-01-10T19:20:34.725Z,1.77
2019-01-10T19:23:02.949Z,1.67
2019-01-10T19:25:30.144Z,1.70
2019-01-10T19:27:58.028Z,1.64
2019-01-10T19:30:30.219Z,1.73
2019-01-10T19:32:57.976Z,1.65
2019-01-10T19:35:26.080Z,1.69
2019-01-10T19:37:52.895Z,1.59
2019-01-10T19:40:20.515Z,1.37
2019-01-10T19:42:48.366Z,1.54
2019-01-10T19:45:16.547Z,1.55
2019-01-10T19:47:43.984Z,1.49
2019-01-10T19:50:16.281Z,1.45
2019-01-10T19:52:43.382Z,1.47
2019-01-10T19:55:12.042Z,1.48
2019-01-10T19:57:38.820Z,1.57
2019-01-10T20:00:11.213Z,1.50
2019-01-10T20:02:38.098Z,1.43
2019-01-10T20:05:05.405Z,1.45
2019-01-10T20:07:34.715Z,1.38
2019-01-10T20:10:01.608Z,1.33
2019-01-10T20:12:28.959Z,1.30
2019-01-10T20:14:55.691Z,1.28
2019-01-10T20:17:23.901Z,1.32
2019-01-10T20:19:50.789Z,1.31
2019-01-10T20:22:17.761Z,1.28
2019-01-10T20:24:44.973Z,1.24
2019-01-10T20:27:12.541Z,1.22
2019-01-10T20:29:40.672Z,1.26
2019-01-10T20:32:08.651Z,1.27
2019-01-10T20:34:36.203Z,1.26
2019-01-10T20:37:04.905Z,1.24
2019-01-10T20:39:33.145Z,1.24
2019-01-10T20:42:01.953Z,1.23
2019-01-10T20:44:30.245Z,1.24
2019-01-10T20:46:57.682Z,1.23
2019-01-10T20:49:24.460Z,1.25
2019-01-10T20:51:51.694Z,1.25
2019-01-10T20:54:18.720Z,1.25
2019-01-10T20:56:46.588Z,1.27
2019-01-10T20:59:14.361Z,1.23
2019-01-10T21:01:41.485Z,1.21
2019-01-10T21:04:08.863Z,1.20
2019-01-10T21:06:36.377Z,1.21
2019-01-10T21:09:12.853Z,1.12
2019-01-10T21:11:36.019Z,1.19
2019-01-10T21:14:03.892Z,1.17
2019-01-10T21:16:30.901Z,1.21
2019-01-10T21:18:58.328Z,1.14
2019-01-10T21:21:27.703Z,1.21
2019-01-10T21:23:54.856Z,1.20
2019-01-10T21:26:21.650Z,1.16
2019-01-10T21:28:48.476Z,1.10
2019-01-10T21:31:15.496Z,1.17
2019-01-10T21:33:42.175Z,1.20
2019-01-10T21:36:09.353Z,1.16
2019-01-10T21:38:36.128Z,1.13
2019-01-10T21:41:03.701Z,1.22
2019-01-10T21:43:30.925Z,1.21
2019-01-10T21:45:58.392Z,1.26
2019-01-10T21:48:25.900Z,1.20
2019-01-10T21:50:53.000Z,1.16
2019-01-10T21:53:19.837Z,1.21
2019-01-10T21:55:47.594Z,1.25
2019-01-10T21:58:14.373Z,1.25
2019-01-10T22:00:41.278Z,1.18
2019-01-10T22:03:08.845Z,1.19
2019-01-10T22:05:36.128Z,1.17
2019-01-10T22:08:07.438Z,1.22
2019-01-10T22:10:34.808Z,1.22
2019-01-10T22:13:01.809Z,1.25
2019-01-10T22:15:28.996Z,1.17
2019-01-10T22:17:56.581Z,1.25
2019-01-10T22:20:24.210Z,1.23
2019-01-10T22:22:52.285Z,1.21
2019-01-10T22:25:19.277Z,1.24
2019-01-10T22:27:46.873Z,1.25
2019-01-10T22:30:16.144Z,1.29
2019-01-10T22:32:43.761Z,1.26
2019-01-10T22:35:12.640Z,1.26
2019-01-10T22:37:39.925Z,1.29
2019-01-10T22:40:09.932Z,1.27
2019-01-10T22:42:37.519Z,1.28
2019-01-10T22:45:04.989Z,1.36
2019-01-10T22:47:31.780Z,1.31
2019-01-10T22:49:58.905Z,1.31
2019-01-10T22:52:25.588Z,1.32
2019-01-10T22:54:53.464Z,1.38
2019-01-10T22:57:21.224Z,1.34
2019-01-10T22:59:47.910Z,1.37
2019-01-10T23:02:15.594Z,1.32
2019-01-10T23:04:42.985Z,1.43
2019-01-10T23:07:20.648Z,1.38
2019-01-10T23:09:48.065Z,1.43
2019-01-10T23:12:15.425Z,1.45
2019-01-10T23:14:42.780Z,1.47
2019-01-10T23:17:10.178Z,1.43
2019-01-10T23:19:45.196Z,1.48
2019-01-10T23:22:13.726Z,1.42
2019-01-10T23:24:40.934Z,1.48
2019-01-10T23:27:07.825Z,1.51
2019-01-10T23:29:35.533Z,1.52
2019-01-10T23:32:11.569Z,1.49
2019-01-10T23:34:50.858Z,1.44
2019-01-10T23:37:21.133Z,1.45
2019-01-10T23:39:49.109Z,1.52
2019-01-10T23:42:16.532Z,1.49
2019-01-10T23:44:44.123Z,1.48
2019-01-10T23:47:11.282Z,1.50
2019-01-10T23:49:38.268Z,1.49
2019-01-10T23:52:05.084Z,1.47
2019-01-10T23:54:31.862Z,1.54
2019-01-10T23:56:59.362Z,1.59
2019-01-10T23:59:26.522Z,1.59
